createdAt,value
2018-10-01T00:02:28.571Z,87.40
2018-10-01T00:04:57.442Z,87.50
2018-10-01T00:07:26.352Z,88.90
2018-10-01T00:09:55.211Z,89.80
2018-10-01T00:12:24.091Z,88.90
2018-10-01T00:14:52.970Z,86.40
2018-10-01T00:17:21.854Z,84.50
2018-10-01T00:19:56.053Z,83.60
2018-10-01T00:22:30.214Z,82.30
2018-10-01T00:24:59.098Z,83.70
2018-10-01T00:27:28.006Z,82.90
2018-10-01T00:29:56.854Z,84.50
2018-10-01T00:32:25.732Z,86.20
2018-10-01T00:34:54.623Z,86.50
2018-10-01T00:37:23.482Z,88.40
2018-10-01T00:39:52.385Z,87.40
2018-10-01T00:42:21.279Z,86.70
2018-10-01T00:44:50.155Z,88.60
2018-10-01T00:47:19.035Z,87.40
2018-10-01T00:49:47.918Z,86.20
2018-10-01T00:52:16.786Z,88.40
2018-10-01T00:54:45.670Z,90.70
2018-10-01T00:57:14.559Z,90.90
2018-10-01T00:59:43.431Z,89.50
2018-10-01T01:02:12.331Z,88.50
2018-10-01T01:04:41.202Z,89.60
2018-10-01T01:07:10.239Z,90.60
2018-10-01T01:09:39.267Z,90.70
2018-10-01T01:12:08.380Z,91.80
2018-10-01T01:14:37.667Z,92.30
2018-10-01T01:17:06.695Z,92.40
2018-10-01T01:19:35.595Z,91.40
2018-10-01T01:22:04.527Z,91.40
2018-10-01T01:24:33.426Z,91.20
2018-10-01T01:27:02.365Z,90.80
2018-10-01T01:29:31.231Z,91.10
2018-10-01T01:32:00.179Z,91.60
2018-10-01T01:34:29.072Z,92.20
2018-10-01T01:36:58.618Z,92.20
2018-10-01T01:39:27.626Z,92.20
2018-10-01T01:41:56.530Z,91.80
2018-10-01T01:44:25.396Z,90.80
2018-10-01T01:46:54.304Z,91.30
2018-10-01T01:49:23.198Z,92.20
2018-10-01T01:51:52.111Z,92.70
2018-10-01T01:54:20.990Z,92.90
2018-10-01T01:56:49.866Z,91.60
2018-10-01T01:59:18.739Z,92.90
2018-10-01T02:01:47.619Z,93.80
2018-10-01T02:04:16.503Z,94.80
2018-10-01T02:06:45.382Z,94.80
2018-10-01T02:09:14.275Z,95.00
2018-10-01T02:11:43.168Z,95.80
2018-10-01T02:14:12.023Z,95.60
2018-10-01T02:16:40.894Z,95.50
2018-10-01T02:19:09.827Z,95.60
2018-10-01T02:21:38.749Z,96.10
2018-10-01T02:24:07.679Z,94.90
2018-10-01T02:26:36.615Z,95.10
2018-10-01T02:29:05.747Z,94.40
2018-10-01T02:31:34.656Z,94.30
2018-10-01T02:34:03.538Z,94.90
2018-10-01T02:36:32.425Z,94.80
2018-10-01T02:39:01.305Z,94.80
2018-10-01T02:41:30.199Z,95.00
2018-10-01T02:43:59.163Z,94.60
2018-10-01T02:46:28.056Z,94.50
2018-10-01T02:48:56.935Z,94.00
2018-10-01T02:51:25.797Z,94.20
2018-10-01T02:53:59.982Z,93.70
2018-10-01T02:56:28.866Z,93.20
2018-10-01T02:58:57.737Z,93.20
2018-10-01T03:01:26.642Z,93.20
2018-10-01T03:03:55.527Z,93.20
2018-10-01T03:06:24.378Z,93.00
2018-10-01T03:08:53.256Z,92.30
2018-10-01T03:11:22.146Z,92.50
2018-10-01T03:13:51.013Z,92.20
2018-10-01T03:16:19.994Z,91.90
2018-10-01T03:18:48.874Z,91.90
2018-10-01T03:21:17.778Z,91.80
2018-10-01T03:23:46.639Z,91.30
2018-10-01T03:26:15.523Z,90.90
2018-10-01T03:28:44.399Z,90.80
2018-10-01T03:31:13.294Z,91.50
2018-10-01T03:33:42.162Z,91.70
2018-10-01T03:36:11.035Z,92.40
2018-10-01T03:38:39.928Z,92.90
2018-10-01T03:41:08.833Z,92.90
2018-10-01T03:43:37.742Z,93.20
2018-10-01T03:46:06.674Z,93.20
2018-10-01T03:48:35.575Z,93.20
2018-10-01T03:51:04.508Z,93.20
2018-10-01T03:53:33.722Z,93.90
2018-10-01T03:56:02.610Z,93.30
2018-10-01T03:58:31.587Z,93.30
2018-10-01T04:01:00.578Z,92.50
2018-10-01T04:03:30.431Z,92.20
2018-10-01T04:05:59.315Z,92.80
2018-10-01T04:08:28.194Z,92.60
2018-10-01T04:10:57.091Z,92.80
2018-10-01T04:13:25.956Z,92.30
2018-10-01T04:15:54.830Z,92.10
2018-10-01T04:18:23.733Z,92.30
2018-10-01T04:20:52.626Z,92.00
2018-10-01T04:23:21.542Z,91.80
2018-10-01T04:25:50.459Z,91.80
2018-10-01T04:28:19.398Z,91.90
2018-10-01T04:30:48.228Z,91.60
2018-10-01T04:33:17.228Z,92.50
2018-10-01T04:35:46.078Z,92.50
2018-10-01T04:38:14.982Z,92.80
2018-10-01T04:40:43.933Z,93.20
2018-10-01T04:43:12.751Z,93.30
2018-10-01T04:45:41.636Z,93.50
2018-10-01T04:48:10.519Z,92.00
2018-10-01T04:50:39.656Z,92.00
2018-10-01T04:53:08.555Z,91.30
2018-10-01T04:55:37.501Z,92.10
2018-10-01T04:58:06.565Z,92.40
2018-10-01T05:00:35.431Z,92.70
2018-10-01T05:03:04.322Z,93.40
2018-10-01T05:05:33.215Z,93.60
2018-10-01T05:08:02.106Z,93.60
2018-10-01T05:10:31.110Z,93.60
2018-10-01T05:12:59.987Z,93.30
2018-10-01T05:15:28.851Z,92.70
2018-10-01T05:17:57.742Z,91.70
2018-10-01T05:20:26.619Z,91.20
2018-10-01T05:22:55.575Z,91.00
2018-10-01T05:25:24.486Z,91.70
2018-10-01T05:27:53.423Z,91.00
2018-10-01T05:30:22.283Z,91.80
2018-10-01T05:32:51.204Z,92.60
2018-10-01T05:35:20.162Z,92.30
2018-10-01T05:37:49.081Z,92.60
2018-10-01T05:40:18.206Z,92.40
2018-10-01T05:42:47.105Z,93.00
2018-10-01T05:45:16.029Z,92.90
2018-10-01T05:47:44.922Z,92.40
2018-10-01T05:50:13.799Z,92.50
2018-10-01T05:52:42.834Z,92.20
2018-10-01T05:55:11.716Z,91.80
2018-10-01T05:57:40.746Z,91.80
2018-10-01T06:00:09.586Z,90.10
2018-10-01T06:02:38.507Z,88.80
2018-10-01T06:05:07.492Z,85.40
2018-10-01T06:07:36.406Z,86.10
2018-10-01T06:10:05.420Z,86.00
2018-10-01T06:12:34.382Z,84.90
2018-10-01T06:15:03.298Z,87.80
2018-10-01T06:17:32.730Z,89.10
2018-10-01T06:20:01.695Z,87.80
2018-10-01T06:22:30.594Z,86.40
2018-10-01T06:24:59.885Z,88.50
2018-10-01T06:27:30.097Z,89.10
2018-10-01T06:29:59.083Z,83.70
2018-10-01T06:32:27.981Z,81.30
2018-10-01T06:34:56.828Z,81.30
2018-10-01T06:37:25.710Z,81.30
2018-10-01T06:39:54.579Z,81.30
2018-10-01T06:42:23.571Z,80.50
2018-10-01T06:44:58.658Z,80.30
2018-10-01T06:47:33.926Z,78.50
2018-10-01T06:50:09.147Z,78.50
2018-10-01T06:52:44.343Z,77.80
2018-10-01T06:55:19.491Z,77.40
2018-10-01T06:57:54.590Z,75.80
2018-10-01T07:00:23.481Z,76.70
2018-10-01T07:02:52.430Z,74.70
2018-10-01T07:05:21.395Z,73.60
2018-10-01T07:07:50.294Z,72.70
2018-10-01T07:10:19.186Z,69.40
2018-10-01T07:12:48.079Z,68.20
2018-10-01T07:15:16.986Z,69.10
2018-10-01T07:17:45.870Z,71.20
2018-10-01T07:20:14.946Z,71.90
2018-10-01T07:22:43.850Z,71.10
2018-10-01T07:25:12.722Z,68.30
2018-10-01T07:27:41.598Z,68.70
2018-10-01T07:30:11.030Z,61.00
2018-10-01T07:32:39.978Z,62.70
2018-10-01T07:35:09.019Z,58.50
2018-10-01T07:37:39.293Z,58.60
2018-10-01T07:40:08.307Z,59.70
2018-10-01T07:42:37.614Z,54.40
2018-10-01T07:45:07.004Z,54.60
2018-10-01T07:47:35.902Z,54.70
2018-10-01T07:50:05.857Z,54.60
2018-10-01T07:52:34.791Z,51.40
2018-10-01T07:55:03.975Z,49.80
2018-10-01T07:57:32.892Z,48.70
2018-10-01T08:00:01.987Z,47.30
2018-10-01T08:02:30.838Z,48.40
2018-10-01T08:04:59.674Z,49.30
2018-10-01T08:07:28.578Z,52.70
2018-10-01T08:09:57.446Z,51.20
2018-10-01T08:12:26.330Z,49.90
2018-10-01T08:14:55.218Z,49.60
2018-10-01T08:17:24.105Z,49.20
2018-10-01T08:19:53.002Z,48.10
2018-10-01T08:22:21.894Z,47.80
2018-10-01T08:24:50.778Z,46.20
2018-10-01T08:27:19.670Z,46.30
2018-10-01T08:29:49.805Z,45.00
2018-10-01T08:32:18.507Z,43.50
2018-10-01T08:34:47.370Z,40.40
2018-10-01T08:37:16.234Z,41.20
2018-10-01T08:39:45.147Z,40.70
2018-10-01T08:42:14.020Z,42.40
2018-10-01T08:44:42.898Z,41.20
2018-10-01T08:47:11.909Z,42.20
2018-10-01T08:50:49.859Z,42.80
2018-10-01T08:53:25.063Z,41.60
2018-10-01T08:55:53.894Z,42.00
2018-10-01T08:58:22.785Z,40.50
2018-10-01T09:00:51.686Z,40.30
2018-10-01T09:03:20.558Z,40.60
2018-10-01T09:05:49.451Z,40.20
2018-10-01T09:08:18.346Z,38.40
2018-10-01T09:10:47.236Z,38.50
2018-10-01T09:13:16.111Z,38.60
2018-10-01T09:15:45.055Z,38.60
2018-10-01T09:18:13.919Z,37.10
2018-10-01T09:20:42.895Z,38.80
2018-10-01T09:23:11.791Z,38.40
2018-10-01T09:25:40.633Z,35.40
2018-10-01T09:28:09.498Z,34.40
2018-10-01T09:30:38.432Z,34.90
2018-10-01T09:33:07.334Z,34.20
2018-10-01T09:35:36.384Z,33.60
2018-10-01T09:38:05.462Z,33.70
2018-10-01T09:40:34.296Z,34.40
2018-10-01T09:43:03.198Z,34.80
2018-10-01T09:45:32.107Z,34.80
2018-10-01T09:48:00.999Z,35.10
2018-10-01T09:50:29.928Z,33.90
2018-10-01T09:52:58.802Z,35.10
2018-10-01T09:55:27.727Z,33.90
2018-10-01T09:57:56.633Z,34.20
2018-10-01T10:00:31.011Z,33.70
2018-10-01T10:02:59.921Z,33.70
2018-10-01T10:05:28.824Z,34.90
2018-10-01T10:07:57.744Z,34.90
2018-10-01T10:10:26.602Z,36.20
2018-10-01T10:12:55.469Z,36.10
2018-10-01T10:15:24.368Z,36.00
2018-10-01T10:17:53.294Z,35.60
2018-10-01T10:20:22.314Z,36.00
2018-10-01T10:22:51.388Z,36.20
2018-10-01T10:25:20.279Z,36.20
2018-10-01T10:27:49.210Z,35.80
2018-10-01T10:30:18.124Z,35.40
2018-10-01T10:32:46.994Z,36.30
2018-10-01T10:35:15.882Z,35.80
2018-10-01T10:37:44.770Z,35.00
2018-10-01T10:40:13.683Z,35.80
2018-10-01T10:42:43.777Z,35.40
2018-10-01T10:45:14.839Z,36.30
2018-10-01T10:47:43.770Z,35.10
2018-10-01T10:50:13.063Z,35.40
2018-10-01T10:52:41.967Z,33.80
2018-10-01T10:55:10.859Z,33.70
2018-10-01T10:57:39.746Z,33.10
2018-10-01T11:00:08.988Z,33.00
2018-10-01T11:02:43.942Z,33.80
2018-10-01T11:05:12.846Z,32.60
2018-10-01T11:07:45.994Z,32.50
2018-10-01T11:10:14.903Z,32.90
2018-10-01T11:12:43.782Z,31.70
2018-10-01T11:15:12.844Z,32.20
2018-10-01T11:17:41.601Z,31.90
2018-10-01T11:20:10.586Z,32.10
2018-10-01T11:22:39.563Z,31.50
2018-10-01T11:25:08.495Z,30.90
2018-10-01T11:27:37.465Z,31.00
2018-10-01T11:30:06.660Z,31.20
2018-10-01T11:32:35.615Z,28.90
2018-10-01T11:35:04.626Z,29.90
2018-10-01T11:37:33.488Z,29.50
2018-10-01T11:40:02.473Z,28.70
2018-10-01T11:42:31.318Z,29.00
2018-10-01T11:45:00.245Z,28.60
2018-10-01T11:47:29.118Z,28.90
2018-10-01T11:49:58.006Z,29.80
2018-10-01T11:52:26.903Z,29.70
2018-10-01T11:54:55.811Z,29.70
2018-10-01T11:57:24.742Z,30.60
2018-10-01T11:59:53.615Z,32.20
2018-10-01T12:02:22.504Z,32.40
2018-10-01T12:04:51.435Z,33.80
2018-10-01T12:07:20.328Z,34.90
2018-10-01T12:09:49.261Z,34.50
2018-10-01T12:12:18.095Z,35.20
2018-10-01T12:14:46.963Z,35.90
2018-10-01T12:17:15.869Z,37.10
2018-10-01T12:19:44.743Z,37.10
2018-10-01T12:22:13.677Z,38.70
2018-10-01T12:24:42.587Z,38.50
2018-10-01T12:27:11.551Z,38.80
2018-10-01T12:29:40.383Z,37.10
2018-10-01T12:32:11.722Z,36.60
2018-10-01T12:34:40.818Z,36.90
2018-10-01T12:37:09.755Z,36.70
2018-10-01T12:39:38.685Z,36.80
2018-10-01T12:42:07.546Z,36.50
2018-10-01T12:44:36.429Z,35.90
2018-10-01T12:47:05.375Z,35.70
2018-10-01T12:49:34.258Z,36.40
2018-10-01T12:52:03.170Z,36.30
2018-10-01T12:54:32.160Z,37.10
2018-10-01T12:57:01.093Z,35.00
2018-10-01T12:59:29.981Z,35.50
2018-10-01T13:01:58.830Z,33.50
2018-10-01T13:04:27.702Z,31.40
2018-10-01T13:06:56.583Z,29.70
2018-10-01T13:09:25.446Z,26.40
2018-10-01T13:11:54.359Z,25.80
2018-10-01T13:14:30.610Z,25.60
2018-10-01T13:16:59.514Z,24.90
2018-10-01T13:19:28.408Z,23.80
2018-10-01T13:21:57.334Z,23.70
2018-10-01T13:24:26.247Z,24.10
2018-10-01T13:26:55.139Z,25.10
2018-10-01T13:29:24.182Z,24.80
2018-10-01T13:31:53.107Z,24.50
2018-10-01T13:34:21.954Z,25.40
2018-10-01T13:36:50.913Z,25.50
2018-10-01T13:39:19.789Z,25.70
2018-10-01T13:41:48.666Z,26.00
2018-10-01T13:44:17.665Z,26.00
2018-10-01T13:46:46.588Z,25.80
2018-10-01T13:49:15.460Z,25.50
2018-10-01T13:51:44.395Z,25.30
2018-10-01T13:54:13.298Z,26.00
2018-10-01T13:56:42.171Z,25.30
2018-10-01T13:59:11.070Z,25.20
2018-10-01T14:01:40.055Z,24.50
2018-10-01T14:04:08.847Z,24.10
2018-10-01T14:06:37.784Z,23.40
2018-10-01T14:09:08.131Z,23.90
2018-10-01T14:11:37.043Z,23.60
2018-10-01T14:14:06.018Z,24.30
2018-10-01T14:16:35.122Z,24.50
2018-10-01T14:19:04.143Z,24.10
2018-10-01T14:21:33.104Z,24.20
2018-10-01T14:24:02.220Z,23.50
2018-10-01T14:26:31.118Z,22.20
2018-10-01T14:29:00.047Z,21.70
2018-10-01T14:31:28.963Z,21.20
2018-10-01T14:33:57.839Z,21.40
2018-10-01T14:36:26.876Z,21.60
2018-10-01T14:38:55.766Z,21.60
2018-10-01T14:41:24.745Z,22.90
2018-10-01T14:43:53.627Z,23.10
2018-10-01T14:46:22.699Z,22.50
2018-10-01T14:48:51.542Z,22.50
2018-10-01T14:51:20.465Z,22.80
2018-10-01T14:53:49.310Z,22.30
2018-10-01T14:56:18.198Z,21.70
2018-10-01T14:58:47.191Z,21.90
2018-10-01T15:01:16.131Z,20.80
2018-10-01T15:03:45.058Z,20.40
2018-10-01T15:06:13.988Z,20.30
2018-10-01T15:08:42.824Z,21.20
2018-10-01T15:11:11.786Z,21.70
2018-10-01T15:13:40.684Z,22.20
2018-10-01T15:16:09.770Z,22.30
2018-10-01T15:18:38.888Z,23.00
2018-10-01T15:21:08.773Z,23.10
2018-10-01T15:23:42.356Z,22.50
2018-10-01T15:26:11.403Z,21.60
2018-10-01T15:28:40.314Z,20.70
2018-10-01T15:31:12.343Z,18.80
2018-10-01T15:33:41.285Z,18.70
2018-10-01T15:36:10.448Z,17.10
2018-10-01T15:38:39.479Z,17.60
2018-10-01T15:41:08.807Z,18.00
2018-10-01T15:43:37.766Z,17.60
2018-10-01T15:46:06.946Z,17.50
2018-10-01T15:48:35.923Z,17.00
2018-10-01T15:51:04.822Z,16.70
2018-10-01T15:53:33.739Z,17.00
2018-10-01T15:56:02.692Z,17.80
2018-10-01T15:58:31.530Z,19.40
2018-10-01T16:01:00.518Z,18.40
2018-10-01T16:03:29.370Z,18.90
2018-10-01T16:05:59.001Z,19.50
2018-10-01T16:08:27.938Z,19.40
2018-10-01T16:10:58.005Z,19.70
2018-10-01T16:13:27.138Z,19.70
2018-10-01T16:15:56.020Z,20.30
2018-10-01T16:18:24.991Z,21.60
2018-10-01T16:20:55.064Z,21.00
2018-10-01T16:23:23.959Z,21.30
2018-10-01T16:25:53.352Z,21.60
2018-10-01T16:28:22.283Z,21.50
2018-10-01T16:30:51.334Z,22.00
2018-10-01T16:33:20.439Z,22.20
2018-10-01T16:35:49.326Z,22.50
2018-10-01T16:38:18.239Z,22.70
2018-10-01T16:40:47.306Z,22.60
2018-10-01T16:43:16.187Z,22.80
2018-10-01T16:45:45.099Z,23.10
2018-10-01T16:48:14.064Z,23.40
2018-10-01T16:50:42.954Z,23.80
2018-10-01T16:53:11.830Z,24.10
2018-10-01T16:55:40.765Z,24.60
2018-10-01T16:58:09.712Z,24.80
2018-10-01T17:00:38.609Z,25.60
2018-10-01T17:03:07.574Z,26.40
2018-10-01T17:05:36.504Z,27.30
2018-10-01T17:08:05.430Z,28.20
2018-10-01T17:10:34.327Z,28.30
2018-10-01T17:13:03.215Z,29.30
2018-10-01T17:15:32.115Z,30.00
2018-10-01T17:18:00.997Z,31.30
2018-10-01T17:20:29.882Z,32.30
2018-10-01T17:22:58.794Z,33.30
2018-10-01T17:25:27.679Z,33.70
2018-10-01T17:27:56.644Z,34.80
2018-10-01T17:30:25.694Z,35.10
2018-10-01T17:32:54.609Z,35.80
2018-10-01T17:35:23.531Z,36.20
2018-10-01T17:37:52.546Z,36.70
2018-10-01T17:40:21.599Z,37.60
2018-10-01T17:42:50.592Z,37.60
2018-10-01T17:45:19.643Z,37.50
2018-10-01T17:47:48.671Z,38.20
2018-10-01T17:50:17.721Z,38.40
2018-10-01T17:52:46.587Z,38.30
2018-10-01T17:55:15.527Z,39.00
2018-10-01T17:57:48.406Z,38.80
2018-10-01T18:00:17.576Z,38.90
2018-10-01T18:02:46.396Z,35.50
2018-10-01T18:05:15.284Z,33.10
2018-10-01T18:07:44.274Z,32.20
2018-10-01T18:10:13.170Z,31.60
2018-10-01T18:12:42.154Z,31.40
2018-10-01T18:15:11.414Z,30.20
2018-10-01T18:17:40.313Z,30.70
2018-10-01T18:20:09.255Z,30.00
2018-10-01T18:22:38.197Z,30.20
2018-10-01T18:25:08.123Z,30.30
2018-10-01T18:27:37.150Z,30.50
2018-10-01T18:30:06.902Z,31.60
2018-10-01T18:32:35.815Z,32.20
2018-10-01T18:35:05.138Z,32.80
2018-10-01T18:37:34.604Z,34.10
2018-10-01T18:40:04.459Z,34.20
2018-10-01T18:42:33.447Z,34.60
2018-10-01T18:45:02.313Z,35.10
2018-10-01T18:47:31.174Z,35.30
2018-10-01T18:50:00.067Z,35.90
2018-10-01T18:52:29.077Z,36.70
2018-10-01T18:54:57.963Z,36.60
2018-10-01T18:57:27.239Z,37.40
2018-10-01T18:59:56.122Z,37.10
2018-10-01T19:02:25.053Z,37.30
2018-10-01T19:04:53.958Z,37.30
2018-10-01T19:07:22.857Z,37.60
2018-10-01T19:09:51.739Z,38.30
2018-10-01T19:12:20.660Z,38.10
2018-10-01T19:14:49.636Z,38.40
2018-10-01T19:17:18.483Z,38.80
2018-10-01T19:19:47.365Z,39.50
2018-10-01T19:22:16.276Z,40.10
2018-10-01T19:24:45.226Z,41.00
2018-10-01T19:27:14.121Z,42.20
2018-10-01T19:29:44.085Z,42.30
2018-10-01T19:32:13.010Z,42.90
2018-10-01T19:34:42.484Z,42.90
2018-10-01T19:37:15.867Z,43.40
2018-10-01T19:39:44.680Z,43.70
2018-10-01T19:42:13.731Z,44.00
2018-10-01T19:44:42.821Z,43.90
2018-10-01T19:47:11.738Z,43.50
2018-10-01T19:49:40.622Z,43.80
2018-10-01T19:52:09.612Z,43.90
2018-10-01T19:54:38.601Z,44.40
2018-10-01T19:57:07.609Z,43.50
2018-10-01T19:59:36.663Z,43.40
2018-10-01T20:02:06.508Z,43.70
2018-10-01T20:04:35.581Z,43.70
2018-10-01T20:07:04.666Z,44.20
2018-10-01T20:09:33.749Z,44.30
2018-10-01T20:12:06.103Z,43.70
2018-10-01T20:14:35.409Z,43.30
2018-10-01T20:17:05.026Z,43.70
2018-10-01T20:19:34.012Z,43.60
2018-10-01T20:22:03.040Z,43.10
2018-10-01T20:24:32.010Z,42.30
2018-10-01T20:27:01.139Z,42.90
2018-10-01T20:29:30.340Z,42.70
2018-10-01T20:31:59.231Z,42.50
2018-10-01T20:34:28.099Z,41.80
2018-10-01T20:36:57.040Z,41.50
2018-10-01T20:39:27.222Z,41.70
2018-10-01T20:41:56.474Z,41.60
2018-10-01T20:44:26.101Z,40.90
2018-10-01T20:46:55.060Z,40.40
2018-10-01T20:49:23.937Z,40.60
2018-10-01T20:51:52.836Z,40.40
2018-10-01T20:54:21.787Z,40.00
2018-10-01T20:56:50.659Z,40.70
2018-10-01T20:59:20.175Z,40.00
2018-10-01T21:01:48.975Z,40.00
2018-10-01T21:04:18.170Z,40.30
2018-10-01T21:06:47.258Z,39.70
2018-10-01T21:09:16.366Z,39.40
2018-10-01T21:11:45.239Z,39.40
2018-10-01T21:14:14.148Z,39.70
2018-10-01T21:16:43.080Z,39.10
2018-10-01T21:19:11.978Z,39.10
2018-10-01T21:21:40.913Z,39.00
2018-10-01T21:24:09.892Z,39.10
2018-10-01T21:26:38.911Z,39.10
2018-10-01T21:29:07.811Z,39.20
2018-10-01T21:31:36.705Z,39.30
2018-10-01T21:34:05.619Z,39.10
2018-10-01T21:36:34.519Z,39.40
2018-10-01T21:39:03.898Z,39.30
2018-10-01T21:41:32.757Z,40.30
2018-10-01T21:44:01.659Z,39.90
2018-10-01T21:46:30.554Z,39.90
2018-10-01T21:48:59.546Z,40.20
2018-10-01T21:51:28.425Z,40.90
2018-10-01T21:53:57.314Z,41.80
2018-10-01T21:56:26.178Z,43.30
2018-10-01T21:58:55.057Z,43.40
2018-10-01T22:01:29.183Z,43.60
2018-10-01T22:03:58.077Z,43.20
2018-10-01T22:06:26.973Z,43.50
2018-10-01T22:08:55.857Z,43.60
2018-10-01T22:11:24.761Z,44.60
2018-10-01T22:13:53.650Z,44.10
2018-10-01T22:16:22.523Z,44.50
2018-10-01T22:18:51.402Z,44.80
2018-10-01T22:21:20.302Z,45.60
2018-10-01T22:23:49.190Z,45.60
2018-10-01T22:26:18.067Z,45.60
2018-10-01T22:28:46.959Z,45.60
2018-10-01T22:31:15.851Z,46.90
2018-10-01T22:33:44.742Z,48.00
2018-10-01T22:36:13.633Z,47.80
2018-10-01T22:38:42.478Z,47.90
2018-10-01T22:41:11.379Z,47.00
2018-10-01T22:43:40.274Z,46.80
2018-10-01T22:46:09.270Z,47.30
2018-10-01T22:48:38.226Z,46.90
2018-10-01T22:51:07.202Z,46.80
2018-10-01T22:53:36.114Z,47.80
2018-10-01T22:56:05.111Z,48.00
2018-10-01T22:58:33.986Z,49.30
2018-10-01T23:01:02.863Z,49.10
2018-10-01T23:03:31.747Z,49.50
2018-10-01T23:06:00.917Z,49.60
2018-10-01T23:08:29.773Z,50.50
2018-10-01T23:10:58.662Z,51.30
2018-10-01T23:13:27.534Z,52.20
2018-10-01T23:15:56.482Z,52.30
2018-10-01T23:18:25.379Z,53.10
2018-10-01T23:20:54.438Z,53.30
2018-10-01T23:23:23.302Z,54.70
2018-10-01T23:25:52.354Z,55.10
2018-10-01T23:28:21.246Z,55.50
2018-10-01T23:30:50.251Z,56.60
2018-10-01T23:33:19.134Z,57.30
2018-10-01T23:35:48.006Z,58.20
2018-10-01T23:38:16.873Z,59.30
2018-10-01T23:40:45.754Z,60.30
2018-10-01T23:43:14.631Z,61.20
2018-10-01T23:45:43.510Z,62.80
2018-10-01T23:48:12.414Z,63.60
2018-10-01T23:50:41.290Z,63.50
2018-10-01T23:53:10.236Z,63.60
2018-10-01T23:55:39.218Z,64.60
2018-10-01T23:58:08.102Z,65.60
